Latest Weather Observations for Yanakie

IDV60801

Issued at 7:31 am EDT Sunday 1 March 2015 (issued every 30 minutes, with the page automatically refreshed every 10 minutes)

About weather observations | Map of weather stations | Latest weather observations for VIC | Other Formats
Station Details ID: 085301 Name: YANAKIE Lat: -38.81 Lon: 146.19 Height: 13.3 m
Data from the previous 72 hours. | See also: Recent months at Yanakie
Date/Time
EDT
Temp
°C
App
Temp
°C
Dew
Point
Rel
Hum
%
Delta-T
°C
Wind Press
QNH
hPa
Press
MSL
hPa
Rain
since 9 am
mm
Dir
 
Spd
km/h
Gust
km/h
Spd
kts
Gust
kts
01/07:30am 16.3 12.0 11.9 75 2.4 SW 26 37 14 20 1008.5 1008.4 9.6
01/07:00am 15.6 11.1 11.4 76 2.3 SW 26 39 14 21 1008.0 1007.9 9.6
01/06:30am 15.7 10.7 11.1 74 2.5 WSW 28 39 15 21 1007.3 1007.2 9.6
01/06:00am 16.1 11.4 11.9 76 2.3 SW 28 37 15 20 1006.7 1006.6 9.6
01/05:30am 16.1 12.4 12.7 80 1.9 SW 24 33 13 18 1006.0 1005.9 9.6
01/05:00am 15.7 10.6 13.0 84 1.5 SW 32 39 17 21 1005.6 1005.5 9.6
01/04:30am 15.9 11.0 14.4 91 0.9 SW 33 43 18 23 1005.2 1005.1 9.6
01/04:00am 15.6 11.4 14.6 94 0.6 SW 30 41 16 22 1004.9 1004.8 9.6
01/03:30am 15.7 11.7 15.1 96 0.3 SW 30 39 16 21 1004.8 1004.7 9.6
01/03:00am 16.2 13.1 15.6 96 0.4 SW 26 35 14 19 1004.6 1004.5 9.6
01/02:30am 16.6 12.9 16.0 96 0.4 SW 30 41 16 22 1004.6 1004.5 9.4
01/02:00am 17.4 15.5 16.6 95 0.5 WSW 22 33 12 18 1004.6 1004.5 9.0
01/01:30am 18.0 18.1 17.4 96 0.4 NW 13 20 7 11 1004.3 1004.2 8.0
01/01:00am 17.9 19.6 17.1 95 0.5 NNE 4 7 2 4 1004.3 1004.2 7.8
01/12:30am 17.8 19.8 17.0 95 0.5 NNE 2 6 1 3 1004.1 1004.0 7.8
01/12:00am 18.1 18.8 17.1 94 0.6 NNW 9 13 5 7 1004.9 1004.8 7.2
 
Date/Time
EDT
Temp
°C
App
Temp
°C
Dew
Point
Rel
Hum
%
Delta-T
°C
Wind Press
QNH
hPa
Press
MSL
hPa
Rain
since 9 am
mm
Dir
 
Spd
km/h
Gust
km/h
Spd
kts
Gust
kts
28/11:30pm 18.4 19.6 17.4 94 0.6 WSW 7 9 4 5 1005.5 1005.4 3.0
28/11:00pm 18.4 17.3 17.2 93 0.7 SW 19 24 10 13 1005.1 1005.0 1.4
28/10:30pm 18.6 15.3 16.9 90 1.0 SW 30 44 16 24 1004.8 1004.7 0.8
28/10:00pm 20.1 16.3 17.3 84 1.7 W 33 48 18 26 1004.3 1004.2 0.4
28/09:53pm 20.9 20.6 17.3 80 2.2 WSW 15 48 8 26 1004.3 1004.2 0.2
28/09:47pm 21.7 23.5 17.5 77 2.6 ESE 4 9 2 5 1003.1 1003.0 0.0
28/09:30pm 21.9 22.7 17.3 75 2.8 E 9 17 5 9 1001.0 1000.9 0.0
28/09:00pm 21.2 21.4 16.8 76 2.7 E 11 17 6 9 1000.6 1000.5 0.0
28/08:30pm 20.9 20.6 16.5 76 2.7 E 13 22 7 12 1000.2 1000.1 0.0
28/08:00pm 21.2 20.5 16.4 74 2.9 E 15 26 8 14 1000.7 1000.6 0.0
28/07:30pm 21.4 20.2 17.0 76 2.7 ENE 19 30 10 16 1001.1 1001.0 0.0
28/07:00pm 22.2 21.5 17.3 74 3.0 ENE 17 24 9 13 1001.5 1001.4 0.0
28/06:30pm 22.9 22.9 18.0 74 3.1 E 15 24 8 13 1002.0 1001.9 0.0
28/06:00pm 22.6 23.1 17.5 73 3.2 E 11 20 6 11 1002.4 1002.3 0.0
28/05:30pm 23.1 24.9 17.3 70 3.6 SE 4 9 2 5 1002.8 1002.7 0.0
28/05:00pm 24.1 25.0 16.1 61 4.9 SSE 6 9 3 5 1003.1 1003.0 0.0
28/04:30pm 25.0 25.7 16.2 58 5.4 S 7 9 4 5 1003.0 1002.9 0.0
28/04:00pm 25.1 26.1 16.8 60 5.1 SSE 7 11 4 6 1003.3 1003.2 0.0
28/03:30pm 25.5 27.1 16.9 59 5.3 SSE 4 9 2 5 1003.8 1003.7 0.0
28/03:00pm 25.9 27.1 15.9 54 6.1 SW 4 9 2 5 1004.2 1004.1 0.0
28/02:30pm 24.9 25.2 15.0 54 5.9 WNW 7 11 4 6 1004.4 1004.3 0.0
28/02:00pm 24.3 24.1 15.8 59 5.2 WNW 11 17 6 9 1005.2 1005.1 0.0
28/01:30pm 24.2 23.4 15.1 56 5.4 W 13 19 7 10 1005.0 1004.9 0.0
28/01:00pm 25.7 23.0 14.5 50 6.7 WNW 22 33 12 18 1005.4 1005.3 0.0
28/12:50pm 25.8 22.1 14.9 51 6.5 WNW 28 44 15 24 1005.7 1005.6 0.0
28/12:30pm 23.4 25.0 16.9 67 4.0 NE 4 9 2 5 1005.7 1005.6 0.0
28/12:00pm 21.6 22.2 15.9 70 3.4 ENE 7 11 4 6 1005.3 1005.2 0.0
28/11:30am 22.2 22.5 16.0 68 3.7 ENE 9 13 5 7 1005.4 1005.3 0.0
28/11:00am 23.0 23.4 16.3 66 4.1 NE 9 15 5 8 1005.6 1005.5 0.0
28/10:30am 23.5 24.3 16.3 64 4.4 NE 7 9 4 5 1005.9 1005.8 0.0
28/10:00am 20.7 21.3 15.7 73 3.0 ENE 7 13 4 7 1006.1 1006.0 0.0
28/09:30am 19.7 20.4 16.0 79 2.2 NE 7 11 4 6 1006.3 1006.2 0.0
28/09:00am 18.8 19.5 16.0 84 1.7 ENE 7 11 4 6 1006.5 1006.4 0.0
28/08:30am 18.3 17.8 15.9 86 1.4 NE 13 17 7 9 1006.5 1006.4 0.0
28/08:00am 17.9 17.0 15.9 88 1.2 ENE 15 22 8 12 1005.7 1005.6 0.0
28/07:30am 17.5 16.9 15.7 89 1.1 ENE 13 19 7 10 1006.1 1006.0 0.0
28/07:00am 17.2 15.7 15.4 89 1.1 ENE 17 26 9 14 1005.9 1005.8 0.0
28/06:30am 17.1 15.6 15.3 89 1.0 ENE 17 24 9 13 1006.3 1006.2 0.0
28/06:00am 16.9 15.7 15.1 89 1.0 ENE 15 20 8 11 1006.8 1006.7 0.0
28/05:30am 16.8 16.3 15.0 89 1.0 ENE 11 17 6 9 1007.2 1007.1 0.0
28/05:00am 16.5 16.0 15.0 91 0.9 ENE 11 17 6 9 1007.5 1007.4 0.0
28/04:30am 15.8 15.6 14.7 93 0.6 NE 9 15 5 8 1008.1 1008.0 0.0
28/04:00am 13.3 14.0 12.2 93 0.6 CALM 0 0 0 0 1008.7 1008.6 0.0
28/03:30am 13.0 13.6 11.9 93 0.6 CALM 0 0 0 0 1009.1 1009.0 0.0
28/03:00am 13.2 13.8 11.9 92 0.7 CALM 0 4 0 2 1009.5 1009.4 0.0
28/02:30am 13.1 13.7 11.8 92 0.7 CALM 0 0 0 0 1009.4 1009.3 0.0
28/02:00am 13.2 13.8 11.9 92 0.7 CALM 0 0 0 0 1009.9 1009.8 0.0
28/01:30am 13.1 12.9 11.8 92 0.7 N 4 4 2 2 1010.0 1009.9 0.0
28/01:00am 12.8 13.3 11.5 92 0.7 CALM 0 2 0 1 1010.4 1010.3 0.0
28/12:30am 12.0 12.2 10.6 91 0.7 CALM 0 0 0 0 1011.0 1010.9 0.0
28/12:00am 11.6 11.7 10.0 90 0.8 CALM 0 0 0 0 1011.1 1011.0 0.0
 
Date/Time
EDT
Temp
°C
App
Temp
°C
Dew
Point
Rel
Hum
%
Delta-T
°C
Wind Press
QNH
hPa
Press
MSL
hPa
Rain
since 9 am
mm
Dir
 
Spd
km/h
Gust
km/h
Spd
kts
Gust
kts
27/11:30pm 11.8 11.9 10.0 89 0.9 CALM 0 0 0 0 1011.3 1011.2 0.0
27/11:00pm 12.5 12.7 10.7 89 0.9 CALM 0 0 0 0 1011.3 1011.2 0.0
27/10:30pm 12.6 12.5 10.7 88 1.0 S 2 2 1 1 1011.5 1011.4 0.0
27/10:00pm 12.9 12.7 10.6 86 1.2 SE 2 4 1 2 1011.3 1011.2 0.0
27/09:30pm 13.2 13.4 10.7 85 1.3 CALM 0 0 0 0 1011.3 1011.2 0.0
27/09:00pm 13.2 12.9 10.0 81 1.6 S 2 4 1 2 1011.1 1011.0 0.0
27/08:30pm 14.6 14.5 10.8 78 2.0 S 2 4 1 2 1010.6 1010.5 0.0
27/08:00pm 15.8 15.1 11.4 75 2.4 S 6 6 3 3 1010.4 1010.3 0.0
27/07:30pm 17.2 17.2 12.5 74 2.6 SSW 4 6 2 3 1010.2 1010.1 0.0
27/07:00pm 17.1 17.0 12.2 73 2.7 SW 4 6 2 3 1010.1 1010.0 0.0
27/06:30pm 17.3 16.7 12.2 72 2.8 S 7 13 4 7 1010.0 1009.9 0.0
27/06:00pm 17.9 15.9 12.6 71 3.0 SSW 15 20 8 11 1010.2 1010.1 0.0
27/05:30pm 17.8 14.7 12.3 70 3.0 SSW 20 26 11 14 1010.3 1010.2 0.0
27/05:00pm 19.3 16.4 13.0 67 3.6 SSW 20 28 11 15 1010.6 1010.5 0.0
27/04:30pm 19.5 17.0 13.4 68 3.5 SSW 19 24 10 13 1010.1 1010.0 0.0
27/04:00pm 20.2 18.2 13.9 67 3.6 SSW 17 24 9 13 1010.4 1010.3 0.0
27/03:30pm 21.1 18.8 14.0 64 4.1 SSW 19 26 10 14 1010.1 1010.0 0.0
27/03:00pm 22.2 20.1 14.8 63 4.4 SSW 19 28 10 15 1010.7 1010.6 0.0
27/02:30pm 23.3 21.8 15.4 61 4.7 SSW 17 24 9 13 1010.6 1010.5 0.0
27/02:00pm 22.5 20.9 14.9 62 4.5 SSW 17 24 9 13 1010.5 1010.4 0.0
27/01:30pm 22.5 20.1 14.4 60 4.8 SSW 20 28 11 15 1010.8 1010.7 0.0
27/01:00pm 23.1 22.0 15.2 61 4.7 SSW 15 22 8 12 1010.8 1010.7 0.0
27/12:30pm 22.4 21.2 15.0 63 4.4 SSW 15 24 8 13 1011.0 1010.9 0.0
27/12:00pm 22.2 21.5 15.3 65 4.1 SSW 13 20 7 11 1011.1 1011.0 0.0
27/11:30am 22.1 21.1 15.5 66 3.9 SSW 15 22 8 12 1011.4 1011.3 0.0
27/11:00am 20.1 19.4 15.5 75 2.7 SSW 13 20 7 11 1011.4 1011.3 0.0
27/10:30am 19.5 20.2 16.2 81 2.0 SSW 7 11 4 6 1011.2 1011.1 0.0
27/10:00am 20.5 21.4 18.4 88 1.3 S 11 15 6 8 1011.0 1010.9 0.0
27/09:30am 18.8 19.4 17.6 93 0.7 WSW 11 17 6 9 1010.8 1010.7 0.0
27/09:00am 17.3 18.2 16.5 95 0.5 NW 7 9 4 5 1010.8 1010.7 0.0
27/08:30am 16.2 18.0 15.6 96 0.4 CALM 0 0 0 0 1010.5 1010.4 0.0
27/08:00am 15.3 16.8 14.7 96 0.3 CALM 0 0 0 0 1010.7 1010.6 0.0
27/07:30am 14.7 16.0 14.1 96 0.3 CALM 0 0 0 0 1010.3 1010.2 0.0
27/07:00am 14.0 15.1 13.4 96 0.3 CALM 0 0 0 0 1010.3 1010.2 0.0
27/06:30am 13.9 14.9 13.3 96 0.3 CALM 0 0 0 0 1009.9 1009.8 0.0
27/06:00am 12.9 13.6 12.3 96 0.3 CALM 0 0 0 0 1009.8 1009.7 0.0
27/05:30am 11.4 11.6 10.6 95 0.4 CALM 0 0 0 0 1009.9 1009.8 0.0
27/05:00am 11.7 11.6 10.9 95 0.4 N 2 4 1 2 1009.6 1009.5 0.0
27/04:30am 11.4 11.2 10.6 95 0.4 N 2 2 1 1 1009.9 1009.8 0.0
27/04:00am 10.8 10.4 9.9 94 0.5 N 2 2 1 1 1010.1 1010.0 0.0
27/03:30am 11.5 11.3 10.4 93 0.6 N 2 4 1 2 1010.1 1010.0 0.0
27/03:00am 12.7 12.5 11.8 94 0.5 NNW 4 4 2 2 1010.1 1010.0 0.0
27/02:30am 13.4 13.4 12.3 93 0.6 NW 4 4 2 2 1010.3 1010.2 0.0
27/02:00am 13.4 13.4 12.3 93 0.6 NNW 4 6 2 3 1010.6 1010.5 0.0
27/01:30am 14.3 14.2 13.2 93 0.6 NW 6 7 3 4 1011.1 1011.0 0.0
27/01:00am 13.7 13.1 12.4 92 0.7 NW 7 9 4 5 1011.3 1011.2 0.0
27/12:30am 14.1 13.6 12.7 91 0.8 WNW 7 9 4 5 1011.3 1011.2 0.0
27/12:00am 14.5 14.1 13.0 91 0.8 WNW 7 9 4 5 1011.2 1011.1 0.0
 
Date/Time
EDT
Temp
°C
App
Temp
°C
Dew
Point
Rel
Hum
%
Delta-T
°C
Wind Press
QNH
hPa
Press
MSL
hPa
Rain
since 9 am
mm
Dir
 
Spd
km/h
Gust
km/h
Spd
kts
Gust
kts
26/11:30pm 15.1 15.1 13.6 91 0.8 WNW 6 7 3 4 1011.3 1011.2 0.0
26/11:00pm 15.1 14.9 13.5 90 0.9 NW 7 9 4 5 1011.3 1011.2 0.0
26/10:30pm 15.1 15.4 13.3 89 1.0 NW 4 4 2 2 1011.5 1011.4 0.0
26/10:00pm 14.6 14.3 12.6 88 1.1 WSW 6 6 3 3 1011.5 1011.4 0.0
26/09:30pm 15.2 14.8 13.1 87 1.2 WSW 7 9 4 5 1011.4 1011.3 0.0
26/09:00pm 15.9 15.0 13.6 86 1.3 WSW 11 13 6 7 1011.0 1010.9 0.0
26/08:30pm 16.9 16.5 14.2 84 1.5 SW 9 11 5 6 1010.7 1010.6 0.0
26/08:00pm 17.8 16.6 15.1 84 1.6 SW 15 20 8 11 1010.3 1010.2 0.0
26/07:30pm 18.5 17.2 14.8 79 2.2 SW 15 20 8 11 1010.0 1009.9 0.0
26/07:00pm 19.3 18.0 14.8 75 2.6 SW 15 19 8 10 1009.8 1009.7 0.0
26/06:30pm 19.3 17.9 14.6 74 2.7 SW 15 20 8 11 1009.7 1009.6 0.0
26/06:00pm 20.1 19.4 15.3 74 2.8 SW 13 19 7 10 1009.6 1009.5 0.0
26/05:30pm 19.9 17.8 14.7 72 3.0 SW 19 24 10 13 1009.5 1009.4 0.0
26/05:00pm 22.8 21.2 16.4 67 3.9 SSW 20 28 11 15 1009.4 1009.3 0.0
26/04:30pm 22.7 20.3 15.5 64 4.3 SW 22 28 12 15 1009.4 1009.3 0.0
26/04:00pm 22.2 20.0 16.0 68 3.7 SW 22 30 12 16 1009.6 1009.5 0.0
26/03:30pm 23.4 21.0 16.4 64 4.3 SW 24 33 13 18 1009.7 1009.6 0.0
26/03:00pm 22.8 20.4 16.4 67 3.9 SW 24 35 13 19 1009.9 1009.8 0.0
26/02:30pm 23.2 20.2 16.7 67 4.0 SW 28 35 15 19 1009.9 1009.8 0.0
26/02:00pm 22.5 19.9 16.8 70 3.5 SW 26 35 14 19 1009.9 1009.8 0.0
26/01:30pm 22.9 19.7 16.4 67 4.0 SW 28 35 15 19 1009.8 1009.7 0.0
26/01:00pm 23.5 20.1 16.8 66 4.1 WSW 30 39 16 21 1009.7 1009.6 0.0
26/12:30pm 23.2 20.4 17.2 69 3.7 WSW 28 39 15 21 1009.8 1009.7 0.0
26/12:00pm 23.6 21.2 17.3 67 3.9 WSW 26 35 14 19 1009.9 1009.8 0.0
26/11:30am 22.7 20.9 16.9 70 3.6 WSW 22 28 12 15 1009.7 1009.6 0.0
26/11:00am 21.2 18.8 16.4 74 2.9 WSW 24 30 13 16 1009.7 1009.6 0.0
26/10:30am 20.9 18.9 16.5 76 2.7 W 22 30 12 16 1009.5 1009.4 0.0
26/10:00am 20.4 20.0 18.0 86 1.5 WNW 17 26 9 14 1009.6 1009.5 0.0
26/09:30am 18.2 17.1 16.4 89 1.1 WNW 17 22 9 12 1009.4 1009.3 0.0
26/09:00am 17.7 17.0 16.4 92 0.8 W 15 22 8 12 1009.1 1009.0 0.0
26/08:30am 16.6 17.1 15.5 93 0.6 WNW 7 9 4 5 1008.9 1008.8 0.0
26/08:00am 15.6 15.4 14.6 94 0.6 W 9 13 5 7 1008.7 1008.6 0.0

Other Formats:

Comma delimited format used in spreadsheet applications
http://www.bom.gov.au/fwo/IDV60801/IDV60801.94911.axf

JavaScript Object Notation format (JSON) in row-major order
http://www.bom.gov.au/fwo/IDV60801/IDV60801.94911.json